Time;durP1;ratioP1;P1;durP2;ratioP2;P2;SDS_P1;SDS_P2;PMS_P1;PMS_P2;Temp;Humidity;BMP_temperature;BMP_pressure;BME280_temperature;BME280_humidity;BME280_pressure;Samples;Min_cycle;Max_cycle;Signal;HPM_P1;HPM_P2
2023/11/20 00:01:22;;;;;;;2.77;0.80;;;12.20;83.30;;;;;;5137685;27;20434;-91
2023/11/20 00:03:51;;;;;;;2.67;0.73;;;12.20;83.20;;;;;;5137707;27;20779;-91
2023/11/20 00:06:18;;;;;;;4.17;1.10;;;12.10;82.50;;;;;;5137858;27;20433;-91
2023/11/20 00:08:45;;;;;;;2.40;0.87;;;12.10;82.40;;;;;;5137544;27;20457;-92
2023/11/20 00:11:13;;;;;;;2.20;0.60;;;12.00;82.40;;;;;;5137590;27;20988;-90
2023/11/20 00:13:41;;;;;;;2.27;0.80;;;12.00;82.70;;;;;;5137103;27;20430;-91
2023/11/20 00:16:11;;;;;;;1.87;0.80;;;12.00;82.80;;;;;;5137476;27;20437;-91
2023/11/20 00:18:38;;;;;;;2.73;1.00;;;12.00;82.90;;;;;;5137723;27;20528;-91
2023/11/20 00:21:05;;;;;;;3.67;1.17;;;11.90;83.00;;;;;;5137289;27;20469;-91
2023/11/20 00:23:32;;;;;;;2.10;0.90;;;11.90;83.10;;;;;;5136958;27;20429;-90
2023/11/20 00:25:59;;;;;;;2.00;0.80;;;11.90;83.30;;;;;;5136907;27;20473;-91
2023/11/20 00:28:27;;;;;;;2.03;0.80;;;11.90;83.50;;;;;;5136844;27;20434;-92
2023/11/20 00:30:55;;;;;;;1.77;0.70;;;11.90;83.70;;;;;;5136540;27;20476;-90
2023/11/20 00:33:23;;;;;;;2.40;0.73;;;11.90;83.70;;;;;;5137050;27;20847;-92
2023/11/20 00:35:50;;;;;;;2.33;0.73;;;11.90;83.80;;;;;;5136964;27;20521;-91
2023/11/20 00:38:17;;;;;;;2.67;0.80;;;11.90;83.90;;;;;;5136628;27;20432;-90
2023/11/20 00:40:44;;;;;;;3.20;0.90;;;11.90;83.50;;;;;;5136592;27;20480;-90
2023/11/20 00:43:13;;;;;;;5.03;0.93;;;11.90;83.50;;;;;;5136967;27;20465;-91
2023/11/20 00:45:41;;;;;;;1.83;0.70;;;11.90;83.70;;;;;;5136782;27;20457;-92
2023/11/20 00:48:11;;;;;;;2.07;0.90;;;11.80;83.70;;;;;;5136521;27;20472;-91
2023/11/20 00:50:38;;;;;;;1.90;1.00;;;11.80;83.80;;;;;;5136767;27;20466;-91
2023/11/20 00:53:05;;;;;;;2.60;1.00;;;11.80;83.60;;;;;;5136984;27;20467;-92
2023/11/20 00:55:32;;;;;;;6.17;0.80;;;11.80;83.60;;;;;;5136554;27;20472;-91
2023/11/20 00:57:59;;;;;;;2.10;0.90;;;11.80;83.50;;;;;;5136404;27;20455;-91
2023/11/20 01:00:27;;;;;;;1.97;1.00;;;11.80;83.30;;;;;;5136544;27;20529;-92
2023/11/20 01:02:54;;;;;;;3.57;1.00;;;11.80;83.10;;;;;;5136224;27;20988;-91
2023/11/20 01:05:23;;;;;;;2.10;0.97;;;11.80;83.20;;;;;;5136530;27;20437;-91
2023/11/20 01:07:50;;;;;;;2.73;0.83;;;11.80;83.30;;;;;;5135992;27;20480;-91
2023/11/20 01:10:17;;;;;;;1.87;0.73;;;11.80;83.10;;;;;;5136473;27;20465;-91
2023/11/20 01:12:44;;;;;;;3.33;0.90;;;11.90;82.30;;;;;;5136001;27;20442;-90
2023/11/20 01:15:14;;;;;;;3.20;0.90;;;11.90;82.30;;;;;;5136386;27;20483;-91
2023/11/20 01:17:41;;;;;;;2.87;1.00;;;11.90;82.10;;;;;;5136264;27;20436;-92
2023/11/20 01:20:13;;;;;;;2.07;0.90;;;11.90;81.90;;;;;;5135963;27;20499;-92
2023/11/20 01:22:42;;;;;;;2.10;0.70;;;11.90;81.50;;;;;;5136136;27;20478;-92
2023/11/20 01:25:09;;;;;;;3.70;0.90;;;11.90;81.30;;;;;;5136118;27;20506;-92
2023/11/20 01:27:37;;;;;;;2.60;1.10;;;11.90;81.50;;;;;;5136103;27;20444;-92
2023/11/20 01:30:05;;;;;;;1.90;0.90;;;11.90;81.50;;;;;;5135463;27;20475;-93
2023/11/20 01:32:32;;;;;;;3.50;1.20;;;11.90;81.50;;;;;;5135620;27;20472;-92
2023/11/20 01:34:59;;;;;;;4.23;0.80;;;11.90;81.30;;;;;;5135561;27;20469;-92
2023/11/20 01:37:26;;;;;;;1.97;0.70;;;11.90;81.10;;;;;;5135713;27;20433;-93
2023/11/20 01:39:56;;;;;;;1.97;1.00;;;11.90;81.10;;;;;;5135549;27;20521;-90
2023/11/20 01:42:23;;;;;;;3.33;0.80;;;11.80;81.00;;;;;;5135927;27;20414;-93
2023/11/20 01:44:50;;;;;;;2.10;1.03;;;11.80;81.00;;;;;;5135623;27;20499;-91
2023/11/20 01:47:18;;;;;;;2.13;0.87;;;11.80;80.90;;;;;;5135745;27;20491;-92
2023/11/20 01:49:45;;;;;;;1.80;0.73;;;11.80;80.70;;;;;;5135690;27;20522;-92
2023/11/20 01:52:12;;;;;;;1.90;0.83;;;11.80;80.30;;;;;;5134946;27;20473;-92
2023/11/20 01:54:40;;;;;;;3.00;1.20;;;11.80;79.30;;;;;;5135527;27;20430;-92
2023/11/20 01:57:10;;;;;;;2.40;0.80;;;11.80;79.40;;;;;;5135246;27;20911;-92
2023/11/20 01:59:39;;;;;;;1.93;0.90;;;11.80;78.50;;;;;;5135534;27;20416;-91
2023/11/20 02:02:06;;;;;;;1.87;0.80;;;11.80;78.40;;;;;;5135010;27;20969;-91
2023/11/20 02:04:35;;;;;;;2.87;1.20;;;11.80;78.30;;;;;;5135346;27;20450;-92
2023/11/20 02:07:02;;;;;;;1.80;0.70;;;11.80;78.40;;;;;;5134940;27;20916;-92
2023/11/20 02:09:30;;;;;;;2.10;0.80;;;11.70;78.30;;;;;;5134885;27;20430;-92
2023/11/20 02:11:57;;;;;;;2.03;0.97;;;11.70;78.40;;;;;;5135262;27;20505;-92
2023/11/20 02:14:26;;;;;;;4.20;1.20;;;11.70;77.90;;;;;;5134851;27;20436;-91
2023/11/20 02:16:53;;;;;;;2.67;0.90;;;11.70;77.70;;;;;;5134733;27;20516;-91
2023/11/20 02:19:20;;;;;;;2.23;0.90;;;11.60;77.50;;;;;;5134748;27;20437;-92
2023/11/20 02:21:47;;;;;;;2.33;0.90;;;11.70;77.40;;;;;;5134987;27;20974;-92
2023/11/20 02:24:21;;;;;;;3.07;1.20;;;11.60;77.00;;;;;;5134717;27;20486;-89
2023/11/20 02:26:59;;;;;;;3.80;0.83;;;11.70;76.90;;;;;;5135213;27;20425;-92
2023/11/20 02:29:54;;;;;;;2.73;1.00;;;11.70;76.80;;;;;;5135116;27;20470;-92
2023/11/20 02:32:23;;;;;;;5.07;1.00;;;11.60;76.70;;;;;;5128226;27;20449;-91
2023/11/20 02:34:51;;;;;;;3.27;0.90;;;11.60;76.30;;;;;;5134902;27;20429;-92
2023/11/20 02:37:18;;;;;;;2.30;1.07;;;11.60;76.20;;;;;;5135189;27;20826;-91
2023/11/20 02:39:49;;;;;;;2.47;0.90;;;11.70;76.30;;;;;;5134911;27;20425;-91
2023/11/20 02:42:20;;;;;;;2.10;0.70;;;11.70;76.00;;;;;;5134859;27;20748;-90
2023/11/20 02:44:50;;;;;;;2.20;0.80;;;11.70;76.00;;;;;;5133317;27;20453;-92
2023/11/20 02:47:17;;;;;;;2.37;0.83;;;11.70;75.90;;;;;;5134902;27;20532;-91
2023/11/20 02:49:49;;;;;;;2.63;1.50;;;11.70;75.90;;;;;;5134744;28;20509;-92
2023/11/20 02:52:16;;;;;;;3.50;0.80;;;11.70;75.90;;;;;;5135107;28;20833;-92
2023/11/20 02:54:46;;;;;;;2.10;0.50;;;11.70;75.80;;;;;;5134671;28;20849;-92
2023/11/20 02:57:14;;;;;;;1.80;0.80;;;11.80;75.80;;;;;;5134304;28;20476;-91
2023/11/20 02:59:41;;;;;;;7.50;1.10;;;11.80;75.90;;;;;;5134612;28;20433;-91
2023/11/20 03:02:12;;;;;;;2.27;0.67;;;11.80;75.60;;;;;;5134300;28;20433;-92
2023/11/20 03:04:39;;;;;;;2.10;0.73;;;11.80;75.60;;;;;;5134439;27;20422;-91
2023/11/20 03:07:08;;;;;;;2.13;0.80;;;11.90;76.00;;;;;;5134550;28;20468;-92
2023/11/20 03:09:35;;;;;;;2.00;0.70;;;11.90;75.80;;;;;;5134597;28;20486;-92
2023/11/20 03:12:02;;;;;;;3.53;0.80;;;11.90;75.80;;;;;;5134516;28;20520;-90
2023/11/20 03:14:32;;;;;;;2.90;0.70;;;12.00;75.90;;;;;;5134488;28;20440;-91
2023/11/20 03:16:59;;;;;;;4.33;0.97;;;12.00;76.00;;;;;;5134423;28;20856;-92
2023/11/20 03:19:27;;;;;;;2.10;0.90;;;12.10;75.80;;;;;;5134066;28;20438;-91
2023/11/20 03:21:54;;;;;;;3.27;0.97;;;12.10;75.90;;;;;;5133934;28;20443;-91
2023/11/20 03:24:31;;;;;;;3.33;0.87;;;12.10;75.90;;;;;;5134244;28;20466;-91
2023/11/20 03:26:58;;;;;;;2.40;1.13;;;12.20;76.10;;;;;;5134394;27;20463;-91
2023/11/20 03:29:25;;;;;;;5.00;0.83;;;12.10;75.70;;;;;;5137374;27;20514;-92
2023/11/20 03:31:52;;;;;;;2.40;0.90;;;12.10;75.80;;;;;;5137937;27;20963;-91
2023/11/20 03:34:19;;;;;;;3.00;0.90;;;12.20;76.00;;;;;;5137867;27;20508;-90
2023/11/20 03:36:46;;;;;;;1.93;0.70;;;12.10;76.20;;;;;;5137928;27;20946;-91
2023/11/20 03:39:13;;;;;;;2.10;0.83;;;12.20;76.20;;;;;;5138118;27;20835;-91
2023/11/20 03:41:44;;;;;;;4.87;0.83;;;12.20;76.20;;;;;;5138431;27;20437;-92
2023/11/20 03:44:10;;;;;;;3.90;0.80;;;12.20;75.80;;;;;;5138211;27;20461;-91
2023/11/20 03:46:37;;;;;;;2.63;1.07;;;12.20;75.50;;;;;;5138058;27;20507;-90
2023/11/20 03:49:06;;;;;;;3.20;1.40;;;12.20;75.40;;;;;;5137982;27;20520;-91
2023/11/20 03:51:33;;;;;;;2.37;0.87;;;12.20;75.60;;;;;;5137607;27;20986;-91
2023/11/20 03:54:00;;;;;;;2.57;1.03;;;12.20;75.50;;;;;;5137868;27;20446;-90
2023/11/20 03:56:27;;;;;;;2.10;1.00;;;12.20;75.60;;;;;;5137818;27;20437;-92
2023/11/20 03:58:55;;;;;;;1.90;0.83;;;12.20;75.70;;;;;;5137744;27;20832;-91
2023/11/20 04:01:22;;;;;;;5.90;0.80;;;12.20;75.60;;;;;;5137723;27;20432;-91
2023/11/20 04:03:49;;;;;;;1.80;0.67;;;12.20;75.50;;;;;;5137448;27;20438;-91
2023/11/20 04:06:16;;;;;;;3.60;0.80;;;12.20;75.50;;;;;;5137680;27;20433;-91
2023/11/20 04:08:43;;;;;;;3.07;1.00;;;12.20;75.50;;;;;;5137590;27;20469;-91
2023/11/20 04:11:10;;;;;;;4.50;1.00;;;12.20;75.10;;;;;;5137211;27;20560;-91
2023/11/20 04:13:37;;;;;;;3.10;0.90;;;12.20;75.10;;;;;;5136444;27;20469;-91
2023/11/20 04:16:08;;;;;;;3.17;0.90;;;12.10;74.80;;;;;;5137466;27;20430;-90
2023/11/20 04:18:35;;;;;;;6.60;0.97;;;12.10;74.70;;;;;;5137060;27;20422;-92
2023/11/20 04:21:03;;;;;;;3.27;1.10;;;12.10;74.70;;;;;;5137313;27;20854;-92
2023/11/20 04:23:30;;;;;;;8.20;1.10;;;12.00;74.20;;;;;;5136914;27;20915;-89
2023/11/20 04:25:57;;;;;;;2.20;0.67;;;12.10;74.10;;;;;;5137395;27;20434;-91
2023/11/20 04:28:25;;;;;;;3.10;0.97;;;12.00;74.50;;;;;;5137177;27;20790;-91
2023/11/20 04:30:52;;;;;;;2.30;1.03;;;12.00;73.60;;;;;;5137456;27;20465;-91
2023/11/20 04:33:20;;;;;;;3.10;1.20;;;11.90;72.80;;;;;;5137132;27;20476;-91
2023/11/20 04:35:47;;;;;;;2.80;1.67;;;11.90;72.60;;;;;;5137059;27;20462;-91
2023/11/20 04:38:14;;;;;;;2.10;0.90;;;11.90;72.90;;;;;;5137051;27;20835;-90
2023/11/20 04:40:41;;;;;;;2.53;0.80;;;11.90;72.70;;;;;;5136758;27;20836;-91
2023/11/20 04:43:08;;;;;;;1.93;1.00;;;11.90;72.40;;;;;;5136721;27;20425;-91
2023/11/20 04:45:37;;;;;;;4.43;0.90;;;11.80;72.60;;;;;;5136421;27;20493;-90
2023/11/20 04:48:05;;;;;;;2.30;0.80;;;11.90;72.70;;;;;;5136947;27;20434;-90
2023/11/20 04:50:33;;;;;;;1.87;0.70;;;11.80;72.60;;;;;;5136324;27;20520;-91
2023/11/20 04:53:00;;;;;;;1.70;0.70;;;11.80;73.00;;;;;;5136529;27;20885;-92
2023/11/20 04:55:28;;;;;;;2.97;1.10;;;11.80;72.50;;;;;;5136465;27;20539;-92
2023/11/20 04:57:57;;;;;;;2.40;1.00;;;11.80;72.50;;;;;;5136866;27;20455;-91
2023/11/20 05:00:27;;;;;;;2.00;0.70;;;11.80;72.70;;;;;;5136936;27;20433;-91
2023/11/20 05:02:54;;;;;;;2.90;1.00;;;11.80;72.70;;;;;;5136566;27;20432;-92
2023/11/20 05:05:21;;;;;;;1.93;0.73;;;11.70;72.50;;;;;;5136487;27;20461;-91
2023/11/20 05:07:50;;;;;;;3.23;0.70;;;11.70;72.00;;;;;;5136359;27;20525;-91
2023/11/20 05:10:17;;;;;;;3.37;1.10;;;11.70;72.00;;;;;;5136695;27;20459;-91
2023/11/20 05:12:44;;;;;;;4.60;1.10;;;11.70;72.10;;;;;;5136256;27;20492;-91
2023/11/20 05:15:12;;;;;;;2.60;0.83;;;11.70;72.10;;;;;;5136501;27;20461;-91
2023/11/20 05:17:39;;;;;;;4.07;0.90;;;11.80;71.60;;;;;;5136400;27;20484;-91
2023/11/20 05:20:10;;;;;;;3.50;0.70;;;11.80;71.40;;;;;;5135992;27;20434;-91
2023/11/20 05:22:38;;;;;;;4.07;0.97;;;11.80;71.10;;;;;;5135835;27;20432;-92
2023/11/20 05:25:07;;;;;;;2.80;1.10;;;11.80;70.70;;;;;;5136174;27;20461;-92
2023/11/20 05:27:34;;;;;;;2.03;0.80;;;11.70;70.50;;;;;;5136091;27;20566;-92
2023/11/20 05:30:01;;;;;;;2.10;1.00;;;11.70;70.40;;;;;;5135776;27;20964;-92
2023/11/20 05:32:28;;;;;;;2.27;0.80;;;11.70;70.70;;;;;;5136092;27;20461;-93
2023/11/20 05:34:57;;;;;;;3.80;0.90;;;11.70;71.00;;;;;;5136003;27;20425;-93
2023/11/20 05:37:25;;;;;;;2.00;0.90;;;11.70;70.90;;;;;;5135934;27;20457;-91
2023/11/20 05:39:54;;;;;;;3.10;1.20;;;11.60;70.90;;;;;;5135905;27;20517;-93
2023/11/20 05:42:23;;;;;;;3.30;0.97;;;11.60;70.70;;;;;;5135644;27;20463;-93
2023/11/20 05:44:50;;;;;;;5.30;1.27;;;11.60;70.40;;;;;;5135336;27;20426;-93
2023/11/20 05:47:17;;;;;;;6.53;1.00;;;11.60;70.50;;;;;;5136228;27;20447;-93
2023/11/20 05:49:44;;;;;;;3.83;1.20;;;11.60;70.80;;;;;;5135887;27;20423;-91
2023/11/20 05:52:11;;;;;;;4.83;1.17;;;11.60;70.90;;;;;;5131915;27;20561;-89
2023/11/20 05:54:38;;;;;;;2.70;0.97;;;11.60;70.80;;;;;;5134199;27;20483;-92
2023/11/20 05:57:05;;;;;;;2.77;1.30;;;11.60;70.30;;;;;;5134665;27;20430;-91
2023/11/20 05:59:34;;;;;;;3.50;1.27;;;11.60;70.50;;;;;;5134805;27;20430;-93
2023/11/20 06:02:02;;;;;;;4.40;2.17;;;11.70;70.40;;;;;;5134632;27;20486;-92
2023/11/20 06:04:29;;;;;;;3.17;1.50;;;11.60;71.30;;;;;;5135067;27;20426;-93
2023/11/20 06:06:56;;;;;;;3.17;1.27;;;11.60;70.80;;;;;;5134479;27;20441;-92
2023/11/20 06:09:24;;;;;;;3.47;1.17;;;11.60;71.20;;;;;;5134692;27;20851;-93
2023/11/20 06:11:51;;;;;;;6.07;2.83;;;11.60;71.30;;;;;;5134338;27;20991;-92
2023/11/20 06:14:18;;;;;;;4.70;1.37;;;11.60;71.40;;;;;;5134747;27;20450;-93
2023/11/20 06:16:47;;;;;;;3.50;1.30;;;11.60;71.50;;;;;;5134753;27;20441;-92
2023/11/20 06:19:14;;;;;;;4.07;1.43;;;11.60;71.30;;;;;;5134660;27;20449;-93
2023/11/20 06:21:47;;;;;;;6.33;2.07;;;11.60;71.30;;;;;;5134172;27;20469;-93
2023/11/20 06:24:15;;;;;;;2.80;1.20;;;11.70;71.50;;;;;;5134759;27;20433;-92
2023/11/20 06:26:43;;;;;;;2.70;1.03;;;11.70;71.40;;;;;;5134464;27;20460;-92
2023/11/20 06:29:10;;;;;;;2.73;1.00;;;11.70;71.60;;;;;;5131069;27;20445;-92
2023/11/20 06:31:38;;;;;;;5.47;3.10;;;11.70;71.60;;;;;;5133621;27;20509;-92
2023/11/20 06:34:06;;;;;;;3.17;0.90;;;11.70;71.60;;;;;;5134357;27;20503;-92
2023/11/20 06:36:34;;;;;;;7.93;2.63;;;11.70;71.60;;;;;;5134220;27;20433;-93
2023/11/20 06:39:05;;;;;;;3.97;1.07;;;11.70;72.60;;;;;;5133794;27;20473;-94
2023/11/20 06:41:32;;;;;;;4.63;1.07;;;11.70;71.80;;;;;;5134281;27;20432;-94
2023/11/20 06:44:00;;;;;;;3.10;0.90;;;11.70;71.60;;;;;;5133695;27;20477;-93
2023/11/20 06:46:27;;;;;;;2.10;0.77;;;11.70;72.50;;;;;;5133297;27;20518;-92
2023/11/20 06:48:54;;;;;;;2.80;1.00;;;11.70;71.70;;;;;;5133500;27;20436;-92
2023/11/20 06:51:23;;;;;;;4.20;1.10;;;11.70;71.70;;;;;;5130676;27;20466;-92
2023/11/20 06:53:51;;;;;;;2.70;1.03;;;11.70;72.00;;;;;;5132714;28;20457;-89
2023/11/20 06:56:18;;;;;;;2.90;1.00;;;11.70;72.20;;;;;;5133316;28;20958;-92
2023/11/20 06:58:46;;;;;;;3.03;0.93;;;11.80;72.00;;;;;;5121323;28;20467;-92
2023/11/20 07:01:13;;;;;;;4.63;1.00;;;11.90;72.00;;;;;;5131401;28;20421;-92
2023/11/20 07:03:42;;;;;;;2.93;1.30;;;12.00;71.90;;;;;;5137237;27;20495;-92
2023/11/20 07:06:11;;;;;;;2.30;0.90;;;12.10;71.40;;;;;;5137494;27;20438;-94
2023/11/20 07:08:39;;;;;;;1.90;0.83;;;12.10;71.60;;;;;;5137646;27;20425;-92
2023/11/20 07:11:07;;;;;;;3.40;1.07;;;12.10;70.60;;;;;;5137445;27;20843;-92
2023/11/20 07:13:34;;;;;;;4.00;1.07;;;12.10;70.60;;;;;;5136944;27;20466;-92
2023/11/20 07:16:02;;;;;;;3.67;1.07;;;12.20;70.70;;;;;;5137654;27;20441;-92
2023/11/20 07:18:30;;;;;;;2.67;1.17;;;12.20;70.40;;;;;;5137435;27;20464;-90
2023/11/20 07:20:57;;;;;;;3.37;0.90;;;12.20;70.10;;;;;;5137495;27;20527;-91
2023/11/20 07:23:24;;;;;;;4.00;1.30;;;12.20;69.90;;;;;;5137702;27;20438;-92
2023/11/20 07:25:53;;;;;;;3.63;1.00;;;12.30;69.90;;;;;;5136640;27;20491;-91
2023/11/20 07:28:21;;;;;;;4.27;1.03;;;12.40;70.00;;;;;;5137875;27;20511;-90
2023/11/20 07:30:48;;;;;;;3.00;0.87;;;12.40;69.30;;;;;;5138368;27;20434;-90
2023/11/20 07:33:15;;;;;;;3.90;1.10;;;12.50;68.80;;;;;;5137577;27;20952;-90
2023/11/20 07:35:43;;;;;;;6.53;1.07;;;12.50;68.70;;;;;;5137480;27;20476;-90
2023/11/20 07:38:10;;;;;;;2.90;1.13;;;12.50;68.80;;;;;;5137573;27;20478;-92
2023/11/20 07:40:37;;;;;;;4.07;1.13;;;12.50;68.40;;;;;;5137025;27;20469;-91
2023/11/20 07:43:08;;;;;;;2.80;0.80;;;12.60;68.60;;;;;;5137601;27;20430;-90
2023/11/20 07:45:36;;;;;;;2.87;1.03;;;12.60;68.60;;;;;;5137189;27;20460;-90
2023/11/20 07:48:04;;;;;;;4.47;1.00;;;12.60;68.50;;;;;;5137532;27;20426;-91
2023/11/20 07:50:31;;;;;;;6.30;1.10;;;12.60;68.30;;;;;;5137186;27;20444;-90
2023/11/20 07:52:58;;;;;;;2.00;0.90;;;12.70;68.30;;;;;;5137235;27;20474;-90
2023/11/20 07:55:27;;;;;;;2.10;0.97;;;12.70;68.00;;;;;;5137348;27;20437;-91
2023/11/20 07:57:57;;;;;;;2.30;1.47;;;12.80;68.20;;;;;;5136935;27;20429;-90
2023/11/20 08:00:26;;;;;;;3.13;1.17;;;12.80;67.50;;;;;;5136961;27;20457;-90
2023/11/20 08:02:53;;;;;;;3.47;0.97;;;12.90;67.70;;;;;;5136880;27;20795;-91
2023/11/20 08:05:20;;;;;;;2.80;0.90;;;12.90;67.40;;;;;;5136889;27;21020;-90
2023/11/20 08:07:48;;;;;;;3.20;1.20;;;13.00;66.90;;;;;;5137177;27;20790;-91
2023/11/20 08:10:18;;;;;;;4.80;1.40;;;13.10;66.70;;;;;;5136827;27;20839;-91
2023/11/20 08:12:46;;;;;;;3.83;1.00;;;13.10;66.10;;;;;;5137290;27;20465;-90
2023/11/20 08:15:13;;;;;;;2.50;0.80;;;13.20;65.60;;;;;;5135974;27;20490;-91
2023/11/20 08:17:42;;;;;;;2.13;0.80;;;13.20;64.90;;;;;;5137035;27;20469;-90
2023/11/20 08:20:09;;;;;;;2.60;0.77;;;13.20;65.40;;;;;;5136596;27;20426;-90
2023/11/20 08:22:37;;;;;;;2.10;1.00;;;13.20;65.10;;;;;;5136476;27;20476;-89
2023/11/20 08:25:04;;;;;;;2.50;0.80;;;13.20;65.40;;;;;;5136965;27;20433;-90
2023/11/20 08:27:32;;;;;;;6.27;1.10;;;13.20;65.60;;;;;;5136378;27;20950;-89
2023/11/20 08:29:59;;;;;;;3.17;1.17;;;13.20;65.90;;;;;;5136819;27;20445;-90
2023/11/20 08:32:26;;;;;;;3.90;1.20;;;13.20;65.70;;;;;;5136165;27;20498;-89
2023/11/20 08:34:55;;;;;;;5.17;1.00;;;13.20;65.40;;;;;;5136569;27;20442;-91
2023/11/20 08:37:22;;;;;;;3.07;1.50;;;13.10;64.70;;;;;;5136188;27;20426;-91
2023/11/20 08:39:49;;;;;;;4.50;1.00;;;13.10;64.70;;;;;;5135722;27;20512;-89
2023/11/20 08:42:17;;;;;;;4.13;1.10;;;13.10;64.70;;;;;;5136381;27;21017;-90
2023/11/20 08:44:44;;;;;;;2.30;1.00;;;13.10;64.40;;;;;;5135938;27;20512;-88
2023/11/20 08:47:11;;;;;;;2.30;1.00;;;13.10;63.30;;;;;;5136034;27;20509;-90
2023/11/20 08:49:38;;;;;;;3.97;1.00;;;13.10;63.20;;;;;;5135962;27;20430;-91
2023/11/20 08:52:07;;;;;;;2.93;1.00;;;13.10;63.30;;;;;;5135947;27;20473;-90
2023/11/20 08:54:34;;;;;;;2.30;1.00;;;13.10;63.00;;;;;;5135877;27;20924;-90
2023/11/20 08:57:09;;;;;;;2.40;0.80;;;13.20;63.10;;;;;;5135883;27;20480;-92
2023/11/20 08:59:36;;;;;;;2.90;0.87;;;13.20;62.70;;;;;;5136250;27;20413;-90
2023/11/20 09:02:05;;;;;;;4.10;1.10;;;13.30;62.40;;;;;;5135822;27;20437;-89
2023/11/20 09:04:32;;;;;;;2.33;1.03;;;13.30;62.00;;;;;;5135654;27;20837;-90
2023/11/20 09:06:59;;;;;;;3.13;1.00;;;13.40;62.40;;;;;;5135870;27;20430;-90
2023/11/20 09:09:28;;;;;;;2.23;0.90;;;13.50;62.40;;;;;;5135855;27;20783;-89
2023/11/20 09:11:55;;;;;;;5.03;1.27;;;13.60;61.90;;;;;;5135478;27;20472;-91
2023/11/20 09:14:28;;;;;;;2.90;1.40;;;13.60;61.20;;;;;;5135456;27;20437;-88
2023/11/20 09:16:57;;;;;;;6.10;1.13;;;13.70;61.50;;;;;;5135580;27;20424;-89
2023/11/20 09:19:24;;;;;;;3.70;1.10;;;13.80;61.20;;;;;;5135383;27;20437;-88
2023/11/20 09:21:51;;;;;;;3.10;1.23;;;13.80;61.10;;;;;;5135829;27;20434;-90
2023/11/20 09:24:18;;;;;;;4.83;1.13;;;13.90;60.90;;;;;;5135637;27;20465;-89
2023/11/20 09:26:47;;;;;;;3.60;1.37;;;13.90;59.40;;;;;;5134561;27;20877;-90
2023/11/20 09:29:14;;;;;;;3.07;0.83;;;13.90;59.30;;;;;;5133441;27;20477;-91
2023/11/20 09:31:42;;;;;;;2.80;1.20;;;13.90;59.10;;;;;;5135188;27;20433;-89
2023/11/20 09:34:11;;;;;;;3.27;1.43;;;13.90;59.10;;;;;;5135411;27;20465;-89
2023/11/20 09:36:38;;;;;;;3.53;1.30;;;14.00;59.00;;;;;;5135304;27;20441;-90
2023/11/20 09:39:05;;;;;;;2.20;1.20;;;14.00;58.50;;;;;;5135370;27;20841;-90
2023/11/20 09:41:42;;;;;;;5.00;1.10;;;14.00;58.30;;;;;;5135027;27;20433;-90
2023/11/20 09:44:12;;;;;;;5.50;1.10;;;14.10;58.20;;;;;;5135526;27;20430;-89
2023/11/20 09:46:44;;;;;;;3.20;0.93;;;14.10;57.90;;;;;;5134433;27;20461;-89
2023/11/20 09:49:16;;;;;;;4.73;1.50;;;14.20;58.00;;;;;;5134815;27;20430;-90
2023/11/20 09:51:46;;;;;;;3.30;1.03;;;14.30;58.10;;;;;;5134781;27;20460;-90
2023/11/20 09:54:14;;;;;;;2.27;1.00;;;14.40;57.90;;;;;;5134521;27;20505;-89
2023/11/20 09:56:41;;;;;;;2.93;0.93;;;14.50;57.30;;;;;;5135088;27;20494;-89
2023/11/20 09:59:11;;;;;;;8.73;3.40;;;14.60;57.10;;;;;;5134541;27;20931;-89
2023/11/20 10:01:40;;;;;;;5.97;1.20;;;14.70;57.80;;;;;;5134424;27;20972;-89
2023/11/20 10:04:10;;;;;;;2.50;1.17;;;14.90;57.60;;;;;;5134890;27;20487;-89
2023/11/20 10:06:40;;;;;;;3.87;1.23;;;15.10;56.80;;;;;;5134824;27;20462;-89
2023/11/20 10:09:07;;;;;;;3.60;0.93;;;15.20;56.00;;;;;;5134479;27;20426;-89
2023/11/20 10:11:37;;;;;;;2.90;1.20;;;15.40;56.00;;;;;;5134842;27;20752;-89
2023/11/20 10:14:04;;;;;;;4.73;1.40;;;15.50;56.20;;;;;;5134388;27;20508;-89
2023/11/20 10:16:35;;;;;;;2.83;1.43;;;15.60;54.80;;;;;;5134566;27;20429;-89
2023/11/20 10:19:02;;;;;;;3.80;0.83;;;15.70;54.00;;;;;;5134279;27;20952;-89
2023/11/20 10:21:30;;;;;;;3.43;1.23;;;16.00;54.60;;;;;;5134512;27;20533;-88
2023/11/20 10:23:59;;;;;;;2.43;1.13;;;16.50;53.60;;;;;;5134573;27;20434;-89
2023/11/20 10:26:26;;;;;;;2.67;1.10;;;16.70;52.50;;;;;;5134474;27;20941;-88
2023/11/20 10:28:56;;;;;;;3.20;1.00;;;17.00;52.10;;;;;;5134484;27;20461;-89
2023/11/20 10:31:23;;;;;;;3.23;1.03;;;17.60;52.70;;;;;;5134337;27;20425;-89
2023/11/20 10:34:06;;;;;;;4.67;1.27;;;18.30;50.00;;;;;;5134305;27;20521;-88
2023/11/20 10:36:33;;;;;;;9.80;0.90;;;19.40;48.20;;;;;;5133926;27;20413;-88
2023/11/20 10:39:01;;;;;;;2.27;0.80;;;20.30;46.80;;;;;;5133878;27;20433;-88
2023/11/20 10:41:29;;;;;;;2.80;0.77;;;20.70;45.50;;;;;;5134394;27;20787;-88
2023/11/20 10:43:56;;;;;;;3.23;0.83;;;20.80;42.90;;;;;;5134256;27;20491;-88
2023/11/20 10:46:24;;;;;;;2.57;0.93;;;21.00;43.00;;;;;;5134179;27;20453;-88
2023/11/20 10:48:55;;;;;;;3.57;0.97;;;21.80;44.00;;;;;;5133964;27;20438;-88
2023/11/20 10:51:25;;;;;;;4.23;0.97;;;22.90;40.70;;;;;;5134245;27;20437;-87
2023/11/20 10:54:00;;;;;;;2.80;0.83;;;23.80;37.70;;;;;;5134002;27;20882;-87
2023/11/20 10:56:30;;;;;;;2.07;0.70;;;24.70;36.50;;;;;;5134401;27;20450;-87
2023/11/20 10:59:00;;;;;;;3.90;0.90;;;25.40;35.30;;;;;;5134224;27;20460;-87
2023/11/20 11:01:29;;;;;;;4.37;0.90;;;26.00;33.90;;;;;;5133900;27;20461;-87
2023/11/20 11:03:59;;;;;;;2.50;0.90;;;26.60;32.60;;;;;;5134048;27;20571;-87
2023/11/20 11:06:27;;;;;;;3.23;1.13;;;27.10;29.90;;;;;;5133994;27;20475;-87
2023/11/20 11:08:55;;;;;;;7.93;1.07;;;27.60;29.20;;;;;;5134192;27;20430;-87
2023/11/20 11:11:24;;;;;;;2.60;0.87;;;28.00;29.30;;;;;;5133780;27;20967;-86
2023/11/20 11:13:51;;;;;;;3.40;0.80;;;28.30;27.60;;;;;;5133906;27;20967;-87
2023/11/20 11:16:27;;;;;;;2.10;0.70;;;28.30;26.30;;;;;;5134291;27;20431;-86
2023/11/20 11:19:06;;;;;;;4.43;1.47;;;28.10;25.80;;;;;;5134306;27;20428;-87
2023/11/20 11:21:40;;;;;;;2.50;1.10;;;27.90;26.30;;;;;;5133455;27;20927;-87
2023/11/20 11:24:11;;;;;;;2.77;0.90;;;27.60;26.60;;;;;;5133870;27;20758;-85
2023/11/20 11:26:46;;;;;;;3.77;1.20;;;27.20;26.20;;;;;;5133536;27;20911;-86
2023/11/20 11:29:18;;;;;;;3.67;0.90;;;26.80;26.60;;;;;;5133840;27;20413;-86
2023/11/20 11:32:00;;;;;;;4.87;1.00;;;26.10;26.50;;;;;;5133582;27;20453;-87
2023/11/20 11:34:49;;;;;;;3.20;1.40;;;25.30;26.80;;;;;;5133397;27;20917;-86
2023/11/20 11:37:28;;;;;;;3.50;1.10;;;24.70;27.60;;;;;;5133640;27;20422;-86
2023/11/20 11:40:09;;;;;;;13.23;4.07;;;24.30;27.70;;;;;;5133717;27;20436;-87
2023/11/20 11:42:43;;;;;;;4.13;0.97;;;23.90;27.70;;;;;;5133799;27;20535;-86
2023/11/20 11:45:14;;;;;;;2.70;0.87;;;23.90;28.40;;;;;;5133494;27;20561;-86
2023/11/20 11:47:43;;;;;;;3.30;0.90;;;23.70;28.20;;;;;;5133398;27;20437;-86
2023/11/20 11:50:11;;;;;;;3.53;0.90;;;23.50;28.30;;;;;;5136172;27;20563;-86
2023/11/20 11:52:42;;;;;;;2.80;1.00;;;23.00;28.60;;;;;;5137233;27;20469;-87
2023/11/20 11:55:24;;;;;;;5.00;1.00;;;22.60;29.20;;;;;;5137312;27;20429;-87
2023/11/20 11:57:53;;;;;;;2.43;1.03;;;22.10;29.20;;;;;;5137531;27;20417;-86
2023/11/20 12:00:22;;;;;;;5.47;1.00;;;21.70;30.00;;;;;;5137314;27;20437;-87
2023/11/20 12:02:56;;;;;;;4.83;1.10;;;21.30;30.50;;;;;;5137063;27;20442;-86
2023/11/20 12:05:25;;;;;;;4.40;1.10;;;21.10;31.50;;;;;;5136809;27;20433;-86
2023/11/20 12:07:55;;;;;;;4.53;1.30;;;21.20;32.50;;;;;;5137121;27;20457;-87
2023/11/20 12:10:50;;;;;;;2.77;0.90;;;21.30;31.60;;;;;;5137024;27;20487;-86
2023/11/20 12:13:18;;;;;;;3.93;1.00;;;21.60;31.00;;;;;;5136826;27;20462;-86
2023/11/20 12:15:50;;;;;;;3.00;0.80;;;21.80;30.70;;;;;;5137025;27;20438;-86
2023/11/20 12:18:21;;;;;;;2.47;1.03;;;21.70;31.00;;;;;;5137005;27;20529;-86
2023/11/20 12:21:07;;;;;;;3.60;0.80;;;21.90;31.10;;;;;;5136639;27;20433;-86
2023/11/20 12:23:35;;;;;;;3.83;0.97;;;22.10;30.70;;;;;;5136979;27;20417;-88
2023/11/20 12:26:03;;;;;;;2.33;0.80;;;21.90;30.50;;;;;;5136506;27;20433;-88
2023/11/20 12:28:32;;;;;;;2.23;0.80;;;21.80;30.90;;;;;;5136111;27;20491;-88
2023/11/20 12:31:03;;;;;;;3.10;0.87;;;21.70;30.90;;;;;;5136668;27;20442;-88
2023/11/20 12:33:31;;;;;;;2.43;0.87;;;21.50;31.60;;;;;;5136851;27;20453;-88
2023/11/20 12:36:00;;;;;;;3.40;1.00;;;21.60;31.80;;;;;;5136599;27;20516;-88
2023/11/20 12:38:30;;;;;;;2.93;1.30;;;21.80;32.20;;;;;;5136523;27;20430;-89
2023/11/20 12:40:59;;;;;;;3.40;1.07;;;22.00;31.30;;;;;;5136143;27;20414;-88
2023/11/20 12:43:28;;;;;;;2.67;1.00;;;22.10;31.00;;;;;;5136326;27;20433;-88
2023/11/20 12:45:55;;;;;;;2.73;1.00;;;22.10;30.80;;;;;;5135930;27;20457;-88
2023/11/20 12:48:23;;;;;;;2.60;0.80;;;21.80;31.40;;;;;;5136116;27;20943;-88
2023/11/20 12:50:50;;;;;;;2.80;1.00;;;21.70;31.80;;;;;;5136430;27;20788;-88
2023/11/20 12:53:18;;;;;;;2.70;0.93;;;21.70;32.10;;;;;;5136054;27;20496;-87
2023/11/20 12:55:46;;;;;;;2.83;1.00;;;21.70;32.50;;;;;;5134184;27;21185;-88